Airfield :
LOGIN :

Register | Disclaimer

   EN    FR    IT 

 










Legend :    VFR   Marginal VFR   IFR   Intensive IFR   Very Intensive IFR
Visi :
Ceiling :
>= 8 km
>= 3000ft
5 to 8 km
1000 to 3000 ft
1500m to 5 km
500 to 1000 ft
800 to 1500m
200 to 500 ft
< 800m
< 200 ft
Symbols :   Thunderstorms  Fog  Heavy snow  Heavy precipitations  Wind > 20 kt
SIGMETs :     Misc.  Thunderstorms  Icing  Turbulence  Mountain Waves  Volcanic Ashes






- Airport Elevation : 306 ft
- IATA code : EMA


EGNX - Nottingham East Midlands

CURRENT METAR :
  • 190720Z 28007KT CAVOK M01/M02 Q1042

EXPIRED METARs :
  • 190650Z 28006KT CAVOK M02/M03 Q1042
  • 190620Z 25005KT CAVOK M01/M02 Q1041
  • 190550Z 25006KT CAVOK M01/M02 Q1041
  • 190520Z 27005KT CAVOK M01/M02 Q1040
  • 190450Z 28006KT CAVOK M02/M02 Q1040

TAF TAF EGNX
Valid from the 19 at 06:00 until the 20 at 06:00 UTC


190501Z 1906/2006 28006KT 9999 FEW030
TEMPO 1906/2006 6000
PROB30 1906/1911 3000 BR MIFG
PROB40 1918/2006 3000 BR MIFG
ATIS : +44 1332 852 852 (ext 3201)



MET'MAP, your aeronautical weather chart ! - Copyright ORBIFLY December 2007 - Disclaimer

ORBIFLY MET'MAP TEAM :

Programming & Development : Alexandra Zaïnal
Concept & original design : Baudouin d'Aumeries
Assistance for programming : Marc-Olivier Méhu
Technical & hardware support : Manuel Goepfert

Contact : metmap@orbifly.com




SOURCES & CREDITS :

   NOAA